sensor_id;sensor_type;location;lat;lon;timestamp;P1;durP1;ratioP1;P2;durP2;ratioP2
52898;SDS011;38763;53.096;6.062;2022-12-18T00:03:52;112.55;;;33.85;;
52898;SDS011;38763;53.096;6.062;2022-12-18T00:06:19;107.22;;;34.85;;
52898;SDS011;38763;53.096;6.062;2022-12-18T00:08:46;108.15;;;32.75;;
52898;SDS011;38763;53.096;6.062;2022-12-18T00:11:12;111.72;;;34.50;;
52898;SDS011;38763;53.096;6.062;2022-12-18T00:13:40;90.55;;;28.27;;
52898;SDS011;38763;53.096;6.062;2022-12-18T00:16:10;94.28;;;30.00;;
52898;SDS011;38763;53.096;6.062;2022-12-18T00:18:41;101.32;;;30.75;;
52898;SDS011;38763;53.096;6.062;2022-12-18T00:21:07;113.78;;;34.72;;
52898;SDS011;38763;53.096;6.062;2022-12-18T00:23:36;117.28;;;34.55;;
52898;SDS011;38763;53.096;6.062;2022-12-18T00:26:07;104.88;;;31.40;;
52898;SDS011;38763;53.096;6.062;2022-12-18T00:28:35;115.45;;;34.47;;
52898;SDS011;38763;53.096;6.062;2022-12-18T00:31:01;120.63;;;33.03;;
52898;SDS011;38763;53.096;6.062;2022-12-18T00:33:31;118.05;;;34.08;;
52898;SDS011;38763;53.096;6.062;2022-12-18T00:36:13;124.50;;;35.53;;
52898;SDS011;38763;53.096;6.062;2022-12-18T00:38:40;121.70;;;34.85;;
52898;SDS011;38763;53.096;6.062;2022-12-18T00:41:07;129.15;;;35.00;;
52898;SDS011;38763;53.096;6.062;2022-12-18T00:43:34;116.57;;;32.60;;
52898;SDS011;38763;53.096;6.062;2022-12-18T00:46:00;94.70;;;28.58;;
52898;SDS011;38763;53.096;6.062;2022-12-18T00:48:26;119.65;;;30.85;;
52898;SDS011;38763;53.096;6.062;2022-12-18T00:50:51;115.97;;;33.47;;
52898;SDS011;38763;53.096;6.062;2022-12-18T00:53:17;123.88;;;36.00;;
52898;SDS011;38763;53.096;6.062;2022-12-18T00:55:44;115.55;;;34.30;;
52898;SDS011;38763;53.096;6.062;2022-12-18T00:58:11;119.32;;;32.17;;
52898;SDS011;38763;53.096;6.062;2022-12-18T01:00:37;121.63;;;36.03;;
52898;SDS011;38763;53.096;6.062;2022-12-18T01:03:03;117.63;;;32.92;;
52898;SDS011;38763;53.096;6.062;2022-12-18T01:05:29;112.07;;;32.00;;
52898;SDS011;38763;53.096;6.062;2022-12-18T01:07:55;117.72;;;33.55;;
52898;SDS011;38763;53.096;6.062;2022-12-18T01:10:22;111.10;;;32.38;;
52898;SDS011;38763;53.096;6.062;2022-12-18T01:12:48;110.38;;;28.98;;
52898;SDS011;38763;53.096;6.062;2022-12-18T01:15:14;110.25;;;32.08;;
52898;SDS011;38763;53.096;6.062;2022-12-18T01:17:40;102.20;;;29.42;;
52898;SDS011;38763;53.096;6.062;2022-12-18T01:20:07;110.70;;;32.45;;
52898;SDS011;38763;53.096;6.062;2022-12-18T01:22:33;108.35;;;30.58;;
52898;SDS011;38763;53.096;6.062;2022-12-18T01:24:59;101.55;;;29.70;;
52898;SDS011;38763;53.096;6.062;2022-12-18T01:27:25;111.47;;;31.48;;
52898;SDS011;38763;53.096;6.062;2022-12-18T01:29:51;102.18;;;31.35;;
52898;SDS011;38763;53.096;6.062;2022-12-18T01:32:17;102.47;;;30.30;;
52898;SDS011;38763;53.096;6.062;2022-12-18T01:34:42;96.25;;;29.40;;
52898;SDS011;38763;53.096;6.062;2022-12-18T01:37:08;94.07;;;28.42;;
52898;SDS011;38763;53.096;6.062;2022-12-18T01:39:33;96.05;;;29.70;;
52898;SDS011;38763;53.096;6.062;2022-12-18T01:42:00;96.18;;;29.40;;
52898;SDS011;38763;53.096;6.062;2022-12-18T01:50:11;94.45;;;29.73;;
52898;SDS011;38763;53.096;6.062;2022-12-18T01:52:42;97.10;;;30.40;;
52898;SDS011;38763;53.096;6.062;2022-12-18T01:55:10;94.25;;;28.15;;
52898;SDS011;38763;53.096;6.062;2022-12-18T01:57:37;96.65;;;29.27;;
52898;SDS011;38763;53.096;6.062;2022-12-18T02:00:09;94.30;;;29.13;;
52898;SDS011;38763;53.096;6.062;2022-12-18T02:02:38;94.70;;;28.83;;
52898;SDS011;38763;53.096;6.062;2022-12-18T02:05:06;102.13;;;32.65;;
52898;SDS011;38763;53.096;6.062;2022-12-18T02:07:38;98.30;;;31.38;;
52898;SDS011;38763;53.096;6.062;2022-12-18T02:15:19;96.28;;;30.05;;
52898;SDS011;38763;53.096;6.062;2022-12-18T02:18:08;94.35;;;28.25;;
52898;SDS011;38763;53.096;6.062;2022-12-18T02:20:49;96.18;;;30.20;;
52898;SDS011;38763;53.096;6.062;2022-12-18T02:26:00;94.72;;;29.50;;
52898;SDS011;38763;53.096;6.062;2022-12-18T02:28:55;101.28;;;29.20;;
52898;SDS011;38763;53.096;6.062;2022-12-18T02:31:27;106.07;;;30.45;;
52898;SDS011;38763;53.096;6.062;2022-12-18T02:33:56;106.25;;;29.80;;
52898;SDS011;38763;53.096;6.062;2022-12-18T02:36:25;95.40;;;29.98;;
52898;SDS011;38763;53.096;6.062;2022-12-18T02:38:53;103.78;;;29.65;;
52898;SDS011;38763;53.096;6.062;2022-12-18T02:41:20;102.38;;;29.92;;
52898;SDS011;38763;53.096;6.062;2022-12-18T02:43:52;98.38;;;29.65;;
52898;SDS011;38763;53.096;6.062;2022-12-18T02:49:10;108.65;;;33.25;;
52898;SDS011;38763;53.096;6.062;2022-12-18T02:54:21;107.85;;;34.90;;
52898;SDS011;38763;53.096;6.062;2022-12-18T02:57:03;102.50;;;34.00;;
52898;SDS011;38763;53.096;6.062;2022-12-18T02:59:45;105.13;;;34.72;;
52898;SDS011;38763;53.096;6.062;2022-12-18T03:08:03;113.93;;;38.17;;
52898;SDS011;38763;53.096;6.062;2022-12-18T03:10:35;116.47;;;39.42;;
52898;SDS011;38763;53.096;6.062;2022-12-18T03:13:08;115.20;;;39.45;;
52898;SDS011;38763;53.096;6.062;2022-12-18T03:15:37;111.47;;;38.38;;
52898;SDS011;38763;53.096;6.062;2022-12-18T03:20:44;111.40;;;38.58;;
52898;SDS011;38763;53.096;6.062;2022-12-18T03:23:13;114.35;;;39.40;;
52898;SDS011;38763;53.096;6.062;2022-12-18T03:25:43;110.63;;;39.17;;
52898;SDS011;38763;53.096;6.062;2022-12-18T03:28:12;113.03;;;37.33;;
52898;SDS011;38763;53.096;6.062;2022-12-18T03:30:41;108.15;;;37.78;;
52898;SDS011;38763;53.096;6.062;2022-12-18T03:35:44;112.95;;;39.63;;
52898;SDS011;38763;53.096;6.062;2022-12-18T03:38:11;117.78;;;38.97;;
52898;SDS011;38763;53.096;6.062;2022-12-18T03:40:43;116.78;;;38.92;;
52898;SDS011;38763;53.096;6.062;2022-12-18T03:43:30;112.55;;;38.00;;
52898;SDS011;38763;53.096;6.062;2022-12-18T03:46:05;114.85;;;37.83;;
52898;SDS011;38763;53.096;6.062;2022-12-18T03:48:41;110.72;;;38.97;;
52898;SDS011;38763;53.096;6.062;2022-12-18T03:51:15;112.40;;;39.45;;
52898;SDS011;38763;53.096;6.062;2022-12-18T03:53:51;116.38;;;40.33;;
52898;SDS011;38763;53.096;6.062;2022-12-18T03:56:18;110.78;;;39.95;;
52898;SDS011;38763;53.096;6.062;2022-12-18T03:58:47;111.88;;;40.10;;
52898;SDS011;38763;53.096;6.062;2022-12-18T04:01:15;115.93;;;40.28;;
52898;SDS011;38763;53.096;6.062;2022-12-18T04:03:42;110.90;;;39.20;;
52898;SDS011;38763;53.096;6.062;2022-12-18T04:06:09;108.75;;;39.70;;
52898;SDS011;38763;53.096;6.062;2022-12-18T04:08:36;116.03;;;39.90;;
52898;SDS011;38763;53.096;6.062;2022-12-18T04:11:03;106.45;;;38.83;;
52898;SDS011;38763;53.096;6.062;2022-12-18T04:13:33;104.72;;;38.47;;
52898;SDS011;38763;53.096;6.062;2022-12-18T04:16:00;110.13;;;39.83;;
52898;SDS011;38763;53.096;6.062;2022-12-18T04:18:26;99.30;;;40.28;;
52898;SDS011;38763;53.096;6.062;2022-12-18T04:20:52;97.80;;;36.95;;
52898;SDS011;38763;53.096;6.062;2022-12-18T04:23:17;97.70;;;36.42;;
52898;SDS011;38763;53.096;6.062;2022-12-18T04:25:43;95.85;;;36.10;;
52898;SDS011;38763;53.096;6.062;2022-12-18T04:28:10;96.07;;;35.42;;
52898;SDS011;38763;53.096;6.062;2022-12-18T04:30:35;91.80;;;35.35;;
52898;SDS011;38763;53.096;6.062;2022-12-18T04:33:01;82.93;;;32.53;;
52898;SDS011;38763;53.096;6.062;2022-12-18T04:35:26;90.32;;;35.45;;
52898;SDS011;38763;53.096;6.062;2022-12-18T04:37:52;95.72;;;35.47;;
52898;SDS011;38763;53.096;6.062;2022-12-18T04:40:18;84.13;;;34.35;;
52898;SDS011;38763;53.096;6.062;2022-12-18T04:42:43;81.88;;;32.38;;
52898;SDS011;38763;53.096;6.062;2022-12-18T04:45:09;84.50;;;32.58;;
52898;SDS011;38763;53.096;6.062;2022-12-18T04:47:35;87.70;;;35.53;;
52898;SDS011;38763;53.096;6.062;2022-12-18T04:50:01;88.90;;;34.13;;
52898;SDS011;38763;53.096;6.062;2022-12-18T04:52:26;88.13;;;33.45;;
52898;SDS011;38763;53.096;6.062;2022-12-18T04:54:52;89.35;;;34.72;;
52898;SDS011;38763;53.096;6.062;2022-12-18T04:57:17;81.13;;;32.65;;
52898;SDS011;38763;53.096;6.062;2022-12-18T04:59:43;87.05;;;33.55;;
52898;SDS011;38763;53.096;6.062;2022-12-18T05:02:09;87.28;;;34.63;;
52898;SDS011;38763;53.096;6.062;2022-12-18T05:04:35;84.38;;;33.63;;
52898;SDS011;38763;53.096;6.062;2022-12-18T05:07:01;81.65;;;32.65;;
52898;SDS011;38763;53.096;6.062;2022-12-18T05:09:26;82.30;;;31.95;;
52898;SDS011;38763;53.096;6.062;2022-12-18T05:11:52;78.55;;;32.97;;
52898;SDS011;38763;53.096;6.062;2022-12-18T05:14:18;81.68;;;33.10;;
52898;SDS011;38763;53.096;6.062;2022-12-18T05:16:44;79.50;;;31.75;;
52898;SDS011;38763;53.096;6.062;2022-12-18T05:19:10;76.82;;;31.90;;
52898;SDS011;38763;53.096;6.062;2022-12-18T05:21:35;81.25;;;31.67;;
52898;SDS011;38763;53.096;6.062;2022-12-18T05:24:01;76.70;;;30.63;;
52898;SDS011;38763;53.096;6.062;2022-12-18T05:26:27;77.85;;;32.08;;
52898;SDS011;38763;53.096;6.062;2022-12-18T05:28:52;74.93;;;29.95;;
52898;SDS011;38763;53.096;6.062;2022-12-18T05:31:18;76.35;;;31.27;;
52898;SDS011;38763;53.096;6.062;2022-12-18T05:33:43;75.10;;;29.73;;
52898;SDS011;38763;53.096;6.062;2022-12-18T05:36:09;73.53;;;29.73;;
52898;SDS011;38763;53.096;6.062;2022-12-18T05:38:36;71.75;;;29.65;;
52898;SDS011;38763;53.096;6.062;2022-12-18T05:41:03;67.45;;;29.10;;
52898;SDS011;38763;53.096;6.062;2022-12-18T05:43:31;71.47;;;29.40;;
52898;SDS011;38763;53.096;6.062;2022-12-18T05:46:02;69.03;;;28.98;;
52898;SDS011;38763;53.096;6.062;2022-12-18T05:48:32;61.33;;;26.90;;
52898;SDS011;38763;53.096;6.062;2022-12-18T05:51:03;65.90;;;28.67;;
52898;SDS011;38763;53.096;6.062;2022-12-18T05:53:31;69.28;;;28.48;;
52898;SDS011;38763;53.096;6.062;2022-12-18T05:55:59;67.25;;;27.02;;
52898;SDS011;38763;53.096;6.062;2022-12-18T05:58:26;62.08;;;26.35;;
52898;SDS011;38763;53.096;6.062;2022-12-18T06:00:52;65.32;;;28.33;;
52898;SDS011;38763;53.096;6.062;2022-12-18T06:03:17;59.65;;;26.17;;
52898;SDS011;38763;53.096;6.062;2022-12-18T06:05:43;66.82;;;27.15;;
52898;SDS011;38763;53.096;6.062;2022-12-18T06:08:10;66.05;;;27.65;;
52898;SDS011;38763;53.096;6.062;2022-12-18T06:10:36;62.75;;;26.42;;
52898;SDS011;38763;53.096;6.062;2022-12-18T06:13:02;66.93;;;27.65;;
52898;SDS011;38763;53.096;6.062;2022-12-18T06:15:28;61.22;;;26.08;;
52898;SDS011;38763;53.096;6.062;2022-12-18T06:17:53;64.43;;;26.05;;
52898;SDS011;38763;53.096;6.062;2022-12-18T06:20:19;60.95;;;24.77;;
52898;SDS011;38763;53.096;6.062;2022-12-18T06:22:45;57.47;;;25.23;;
52898;SDS011;38763;53.096;6.062;2022-12-18T06:25:11;59.00;;;24.33;;
52898;SDS011;38763;53.096;6.062;2022-12-18T06:27:36;58.35;;;25.08;;
52898;SDS011;38763;53.096;6.062;2022-12-18T06:30:02;56.63;;;24.50;;
52898;SDS011;38763;53.096;6.062;2022-12-18T06:32:28;58.45;;;24.20;;
52898;SDS011;38763;53.096;6.062;2022-12-18T06:34:54;55.60;;;24.33;;
52898;SDS011;38763;53.096;6.062;2022-12-18T06:37:20;54.05;;;23.90;;
52898;SDS011;38763;53.096;6.062;2022-12-18T06:39:49;52.95;;;23.67;;
52898;SDS011;38763;53.096;6.062;2022-12-18T06:42:14;49.13;;;22.55;;
52898;SDS011;38763;53.096;6.062;2022-12-18T06:44:40;53.15;;;23.08;;
52898;SDS011;38763;53.096;6.062;2022-12-18T06:47:05;54.58;;;23.90;;
52898;SDS011;38763;53.096;6.062;2022-12-18T06:49:31;51.97;;;22.50;;
52898;SDS011;38763;53.096;6.062;2022-12-18T06:51:56;53.47;;;23.60;;
52898;SDS011;38763;53.096;6.062;2022-12-18T06:54:22;51.22;;;22.48;;
52898;SDS011;38763;53.096;6.062;2022-12-18T06:56:48;55.00;;;23.80;;
52898;SDS011;38763;53.096;6.062;2022-12-18T06:59:13;53.20;;;22.50;;
52898;SDS011;38763;53.096;6.062;2022-12-18T07:01:40;52.85;;;22.35;;
52898;SDS011;38763;53.096;6.062;2022-12-18T07:04:06;52.67;;;24.60;;
52898;SDS011;38763;53.096;6.062;2022-12-18T07:06:31;53.28;;;23.67;;
52898;SDS011;38763;53.096;6.062;2022-12-18T07:08:57;51.97;;;22.48;;
52898;SDS011;38763;53.096;6.062;2022-12-18T07:11:23;51.47;;;22.45;;
52898;SDS011;38763;53.096;6.062;2022-12-18T07:13:49;55.08;;;22.05;;
52898;SDS011;38763;53.096;6.062;2022-12-18T07:16:16;51.85;;;23.10;;
52898;SDS011;38763;53.096;6.062;2022-12-18T07:18:43;50.40;;;22.33;;
52898;SDS011;38763;53.096;6.062;2022-12-18T07:21:10;53.67;;;23.60;;
52898;SDS011;38763;53.096;6.062;2022-12-18T07:23:38;52.90;;;22.88;;
52898;SDS011;38763;53.096;6.062;2022-12-18T07:26:07;49.92;;;21.98;;
52898;SDS011;38763;53.096;6.062;2022-12-18T07:28:36;47.17;;;21.42;;
52898;SDS011;38763;53.096;6.062;2022-12-18T07:31:03;50.58;;;20.83;;
52898;SDS011;38763;53.096;6.062;2022-12-18T07:33:32;47.75;;;21.67;;
52898;SDS011;38763;53.096;6.062;2022-12-18T07:35:59;50.60;;;22.60;;
52898;SDS011;38763;53.096;6.062;2022-12-18T07:38:25;55.67;;;22.35;;
52898;SDS011;38763;53.096;6.062;2022-12-18T07:40:51;50.60;;;21.95;;
52898;SDS011;38763;53.096;6.062;2022-12-18T07:43:16;52.13;;;22.65;;
52898;SDS011;38763;53.096;6.062;2022-12-18T07:45:42;49.63;;;21.80;;
52898;SDS011;38763;53.096;6.062;2022-12-18T07:48:08;48.50;;;21.58;;
52898;SDS011;38763;53.096;6.062;2022-12-18T07:50:34;51.17;;;22.15;;
52898;SDS011;38763;53.096;6.062;2022-12-18T07:53:00;47.15;;;20.88;;
52898;SDS011;38763;53.096;6.062;2022-12-18T07:55:30;40.58;;;19.85;;
52898;SDS011;38763;53.096;6.062;2022-12-18T07:57:56;47.05;;;20.48;;
52898;SDS011;38763;53.096;6.062;2022-12-18T08:00:22;43.95;;;20.48;;
52898;SDS011;38763;53.096;6.062;2022-12-18T08:02:48;47.92;;;20.80;;
52898;SDS011;38763;53.096;6.062;2022-12-18T08:05:13;44.95;;;20.08;;
52898;SDS011;38763;53.096;6.062;2022-12-18T08:07:39;44.35;;;19.48;;
52898;SDS011;38763;53.096;6.062;2022-12-18T08:10:05;44.45;;;20.15;;
52898;SDS011;38763;53.096;6.062;2022-12-18T08:12:31;42.35;;;19.88;;
52898;SDS011;38763;53.096;6.062;2022-12-18T08:14:57;44.78;;;19.90;;
52898;SDS011;38763;53.096;6.062;2022-12-18T08:17:22;43.55;;;19.42;;
52898;SDS011;38763;53.096;6.062;2022-12-18T08:19:48;39.78;;;19.23;;
52898;SDS011;38763;53.096;6.062;2022-12-18T08:22:14;42.45;;;19.48;;
52898;SDS011;38763;53.096;6.062;2022-12-18T08:24:39;42.10;;;19.42;;
52898;SDS011;38763;53.096;6.062;2022-12-18T08:27:05;45.72;;;23.73;;
52898;SDS011;38763;53.096;6.062;2022-12-18T08:29:30;42.15;;;19.58;;
52898;SDS011;38763;53.096;6.062;2022-12-18T08:31:56;39.75;;;19.23;;
52898;SDS011;38763;53.096;6.062;2022-12-18T08:34:22;42.03;;;19.13;;
52898;SDS011;38763;53.096;6.062;2022-12-18T08:36:48;44.45;;;20.48;;
52898;SDS011;38763;53.096;6.062;2022-12-18T08:39:13;37.78;;;18.58;;
52898;SDS011;38763;53.096;6.062;2022-12-18T08:41:39;40.55;;;18.35;;
52898;SDS011;38763;53.096;6.062;2022-12-18T08:44:04;40.28;;;19.08;;
52898;SDS011;38763;53.096;6.062;2022-12-18T08:46:54;37.15;;;17.50;;
52898;SDS011;38763;53.096;6.062;2022-12-18T08:49:20;34.95;;;17.73;;
52898;SDS011;38763;53.096;6.062;2022-12-18T08:51:46;38.58;;;18.17;;
52898;SDS011;38763;53.096;6.062;2022-12-18T08:54:11;37.10;;;17.60;;
52898;SDS011;38763;53.096;6.062;2022-12-18T08:56:38;37.17;;;17.58;;
52898;SDS011;38763;53.096;6.062;2022-12-18T08:59:04;36.53;;;17.42;;
52898;SDS011;38763;53.096;6.062;2022-12-18T09:01:29;34.72;;;16.60;;
52898;SDS011;38763;53.096;6.062;2022-12-18T09:03:55;30.40;;;14.93;;
52898;SDS011;38763;53.096;6.062;2022-12-18T09:06:21;30.70;;;15.93;;
52898;SDS011;38763;53.096;6.062;2022-12-18T09:08:48;29.98;;;15.27;;
52898;SDS011;38763;53.096;6.062;2022-12-18T09:11:24;34.28;;;16.23;;
52898;SDS011;38763;53.096;6.062;2022-12-18T09:13:51;31.73;;;15.73;;
52898;SDS011;38763;53.096;6.062;2022-12-18T09:16:18;32.03;;;15.52;;
52898;SDS011;38763;53.096;6.062;2022-12-18T09:18:44;32.40;;;15.15;;
52898;SDS011;38763;53.096;6.062;2022-12-18T09:21:11;30.42;;;15.52;;
52898;SDS011;38763;53.096;6.062;2022-12-18T09:23:39;30.60;;;15.38;;
52898;SDS011;38763;53.096;6.062;2022-12-18T09:26:05;32.58;;;15.30;;
52898;SDS011;38763;53.096;6.062;2022-12-18T09:28:31;29.17;;;14.85;;
52898;SDS011;38763;53.096;6.062;2022-12-18T09:30:56;26.50;;;14.55;;
52898;SDS011;38763;53.096;6.062;2022-12-18T09:33:22;29.63;;;15.43;;
52898;SDS011;38763;53.096;6.062;2022-12-18T09:35:47;27.90;;;14.07;;
52898;SDS011;38763;53.096;6.062;2022-12-18T09:38:17;29.75;;;14.65;;
52898;SDS011;38763;53.096;6.062;2022-12-18T09:40:45;29.30;;;15.48;;
52898;SDS011;38763;53.096;6.062;2022-12-18T09:43:15;28.33;;;14.90;;
52898;SDS011;38763;53.096;6.062;2022-12-18T09:45:44;27.80;;;13.82;;
52898;SDS011;38763;53.096;6.062;2022-12-18T09:48:22;30.40;;;15.07;;
52898;SDS011;38763;53.096;6.062;2022-12-18T09:50:51;27.95;;;13.40;;
52898;SDS011;38763;53.096;6.062;2022-12-18T09:53:27;25.20;;;13.05;;
52898;SDS011;38763;53.096;6.062;2022-12-18T09:55:56;23.05;;;12.82;;
52898;SDS011;38763;53.096;6.062;2022-12-18T09:58:33;26.75;;;14.00;;
52898;SDS011;38763;53.096;6.062;2022-12-18T10:01:13;24.67;;;13.75;;
52898;SDS011;38763;53.096;6.062;2022-12-18T10:03:43;26.00;;;13.30;;
52898;SDS011;38763;53.096;6.062;2022-12-18T10:11:43;26.70;;;12.70;;
52898;SDS011;38763;53.096;6.062;2022-12-18T10:14:21;21.95;;;12.13;;
52898;SDS011;38763;53.096;6.062;2022-12-18T10:17:15;24.98;;;11.98;;
52898;SDS011;38763;53.096;6.062;2022-12-18T10:20:18;22.70;;;10.35;;
52898;SDS011;38763;53.096;6.062;2022-12-18T10:28:07;20.88;;;10.25;;
52898;SDS011;38763;53.096;6.062;2022-12-18T10:30:37;24.38;;;11.70;;
52898;SDS011;38763;53.096;6.062;2022-12-18T10:33:05;23.52;;;10.98;;
52898;SDS011;38763;53.096;6.062;2022-12-18T10:35:30;21.85;;;9.38;;
52898;SDS011;38763;53.096;6.062;2022-12-18T10:38:06;23.20;;;11.15;;
52898;SDS011;38763;53.096;6.062;2022-12-18T10:43:25;22.88;;;11.32;;
52898;SDS011;38763;53.096;6.062;2022-12-18T10:48:47;23.30;;;11.82;;
52898;SDS011;38763;53.096;6.062;2022-12-18T10:51:25;23.38;;;12.02;;
52898;SDS011;38763;53.096;6.062;2022-12-18T10:53:54;25.65;;;11.68;;
52898;SDS011;38763;53.096;6.062;2022-12-18T10:56:23;24.55;;;12.35;;
52898;SDS011;38763;53.096;6.062;2022-12-18T10:59:04;24.98;;;11.90;;
52898;SDS011;38763;53.096;6.062;2022-12-18T11:01:54;24.20;;;11.68;;
52898;SDS011;38763;53.096;6.062;2022-12-18T11:04:24;20.55;;;9.93;;
52898;SDS011;38763;53.096;6.062;2022-12-18T11:09:31;21.95;;;10.10;;
52898;SDS011;38763;53.096;6.062;2022-12-18T11:12:02;24.95;;;9.77;;
52898;SDS011;38763;53.096;6.062;2022-12-18T11:14:42;21.05;;;10.10;;
52898;SDS011;38763;53.096;6.062;2022-12-18T11:19:54;20.50;;;9.40;;
52898;SDS011;38763;53.096;6.062;2022-12-18T11:24:59;21.27;;;9.75;;
52898;SDS011;38763;53.096;6.062;2022-12-18T11:27:46;22.27;;;10.57;;
52898;SDS011;38763;53.096;6.062;2022-12-18T11:30:24;21.67;;;9.23;;
52898;SDS011;38763;53.096;6.062;2022-12-18T11:33:08;20.73;;;9.65;;
52898;SDS011;38763;53.096;6.062;2022-12-18T11:35:47;18.63;;;9.43;;
52898;SDS011;38763;53.096;6.062;2022-12-18T11:43:34;20.35;;;9.18;;
52898;SDS011;38763;53.096;6.062;2022-12-18T11:46:13;19.65;;;9.77;;
52898;SDS011;38763;53.096;6.062;2022-12-18T11:48:47;18.10;;;8.73;;
52898;SDS011;38763;53.096;6.062;2022-12-18T11:51:32;19.92;;;8.90;;
52898;SDS011;38763;53.096;6.062;2022-12-18T11:54:04;21.00;;;8.80;;
52898;SDS011;38763;53.096;6.062;2022-12-18T11:56:41;18.77;;;9.27;;
52898;SDS011;38763;53.096;6.062;2022-12-18T12:01:57;15.88;;;7.20;;
52898;SDS011;38763;53.096;6.062;2022-12-18T12:07:45;17.65;;;8.75;;
52898;SDS011;38763;53.096;6.062;2022-12-18T12:13:20;16.65;;;8.13;;
52898;SDS011;38763;53.096;6.062;2022-12-18T12:16:10;15.10;;;7.22;;
52898;SDS011;38763;53.096;6.062;2022-12-18T12:22:00;18.35;;;6.65;;
52898;SDS011;38763;53.096;6.062;2022-12-18T12:24:57;13.18;;;6.85;;
52898;SDS011;38763;53.096;6.062;2022-12-18T12:27:55;16.27;;;7.85;;
52898;SDS011;38763;53.096;6.062;2022-12-18T12:36:15;19.23;;;7.20;;
52898;SDS011;38763;53.096;6.062;2022-12-18T12:38:49;13.85;;;6.80;;
52898;SDS011;38763;53.096;6.062;2022-12-18T12:41:21;10.68;;;5.38;;
52898;SDS011;38763;53.096;6.062;2022-12-18T12:44:09;12.68;;;5.82;;
52898;SDS011;38763;53.096;6.062;2022-12-18T12:46:42;11.40;;;5.43;;
52898;SDS011;38763;53.096;6.062;2022-12-18T12:49:13;13.05;;;5.65;;
52898;SDS011;38763;53.096;6.062;2022-12-18T12:51:43;12.18;;;6.10;;
52898;SDS011;38763;53.096;6.062;2022-12-18T12:54:19;11.80;;;5.40;;
52898;SDS011;38763;53.096;6.062;2022-12-18T12:56:56;15.02;;;6.68;;
52898;SDS011;38763;53.096;6.062;2022-12-18T12:59:38;10.80;;;5.50;;
52898;SDS011;38763;53.096;6.062;2022-12-18T13:04:47;10.65;;;5.43;;
52898;SDS011;38763;53.096;6.062;2022-12-18T13:10:25;15.75;;;5.70;;
52898;SDS011;38763;53.096;6.062;2022-12-18T13:15:38;10.88;;;5.47;;
52898;SDS011;38763;53.096;6.062;2022-12-18T13:20:41;10.23;;;5.47;;
52898;SDS011;38763;53.096;6.062;2022-12-18T13:36:34;9.10;;;4.25;;
52898;SDS011;38763;53.096;6.062;2022-12-18T13:41:47;9.40;;;4.55;;
52898;SDS011;38763;53.096;6.062;2022-12-18T13:47:00;10.38;;;4.40;;
52898;SDS011;38763;53.096;6.062;2022-12-18T13:52:16;14.18;;;4.68;;
52898;SDS011;38763;53.096;6.062;2022-12-18T13:54:45;9.60;;;4.70;;
52898;SDS011;38763;53.096;6.062;2022-12-18T13:57:35;9.65;;;5.05;;
52898;SDS011;38763;53.096;6.062;2022-12-18T14:02:53;9.68;;;4.60;;
52898;SDS011;38763;53.096;6.062;2022-12-18T14:05:29;9.20;;;4.50;;
52898;SDS011;38763;53.096;6.062;2022-12-18T14:08:05;10.10;;;4.75;;
52898;SDS011;38763;53.096;6.062;2022-12-18T14:10:35;11.07;;;5.05;;
52898;SDS011;38763;53.096;6.062;2022-12-18T14:13:05;12.20;;;5.22;;
52898;SDS011;38763;53.096;6.062;2022-12-18T14:15:39;10.82;;;5.53;;
52898;SDS011;38763;53.096;6.062;2022-12-18T14:20:57;13.93;;;5.43;;
52898;SDS011;38763;53.096;6.062;2022-12-18T14:26:18;11.38;;;5.43;;
52898;SDS011;38763;53.096;6.062;2022-12-18T14:28:49;12.68;;;4.65;;
52898;SDS011;38763;53.096;6.062;2022-12-18T14:31:19;11.70;;;5.50;;
52898;SDS011;38763;53.096;6.062;2022-12-18T14:33:46;11.85;;;5.32;;
52898;SDS011;38763;53.096;6.062;2022-12-18T14:36:13;11.88;;;5.28;;
52898;SDS011;38763;53.096;6.062;2022-12-18T14:38:41;10.40;;;5.30;;
52898;SDS011;38763;53.096;6.062;2022-12-18T14:41:14;11.82;;;4.60;;
52898;SDS011;38763;53.096;6.062;2022-12-18T14:43:42;11.07;;;5.28;;
52898;SDS011;38763;53.096;6.062;2022-12-18T14:51:57;11.38;;;5.47;;
52898;SDS011;38763;53.096;6.062;2022-12-18T14:54:25;12.05;;;5.38;;
52898;SDS011;38763;53.096;6.062;2022-12-18T14:56:59;9.60;;;5.05;;
52898;SDS011;38763;53.096;6.062;2022-12-18T14:59:45;11.27;;;5.40;;
52898;SDS011;38763;53.096;6.062;2022-12-18T15:02:21;10.82;;;5.82;;
52898;SDS011;38763;53.096;6.062;2022-12-18T15:05:03;11.60;;;5.25;;
52898;SDS011;38763;53.096;6.062;2022-12-18T15:07:42;8.98;;;4.72;;
52898;SDS011;38763;53.096;6.062;2022-12-18T15:12:45;10.10;;;5.03;;
52898;SDS011;38763;53.096;6.062;2022-12-18T15:21:18;12.80;;;6.63;;
52898;SDS011;38763;53.096;6.062;2022-12-18T15:26:02;10.65;;;5.43;;
52898;SDS011;38763;53.096;6.062;2022-12-18T15:28:43;22.98;;;10.15;;
52898;SDS011;38763;53.096;6.062;2022-12-18T15:31:30;14.43;;;6.82;;
52898;SDS011;38763;53.096;6.062;2022-12-18T15:36:37;13.90;;;6.70;;
52898;SDS011;38763;53.096;6.062;2022-12-18T15:39:03;11.07;;;5.40;;
52898;SDS011;38763;53.096;6.062;2022-12-18T15:41:30;13.00;;;5.95;;
52898;SDS011;38763;53.096;6.062;2022-12-18T15:44:00;11.30;;;5.40;;
52898;SDS011;38763;53.096;6.062;2022-12-18T15:46:25;12.40;;;6.38;;
52898;SDS011;38763;53.096;6.062;2022-12-18T15:48:55;12.27;;;5.82;;
52898;SDS011;38763;53.096;6.062;2022-12-18T15:51:35;11.75;;;5.07;;
52898;SDS011;38763;53.096;6.062;2022-12-18T15:54:02;10.02;;;5.80;;
52898;SDS011;38763;53.096;6.062;2022-12-18T15:56:30;13.02;;;6.22;;
52898;SDS011;38763;53.096;6.062;2022-12-18T15:59:18;12.20;;;5.65;;
52898;SDS011;38763;53.096;6.062;2022-12-18T16:01:46;13.90;;;5.63;;
52898;SDS011;38763;53.096;6.062;2022-12-18T16:04:14;12.75;;;5.72;;
52898;SDS011;38763;53.096;6.062;2022-12-18T16:06:41;11.48;;;5.38;;
52898;SDS011;38763;53.096;6.062;2022-12-18T16:09:07;11.38;;;5.90;;
52898;SDS011;38763;53.096;6.062;2022-12-18T16:11:34;12.55;;;6.25;;
52898;SDS011;38763;53.096;6.062;2022-12-18T16:14:17;12.32;;;6.05;;
52898;SDS011;38763;53.096;6.062;2022-12-18T16:16:54;12.27;;;6.30;;
52898;SDS011;38763;53.096;6.062;2022-12-18T16:19:22;12.20;;;6.18;;
52898;SDS011;38763;53.096;6.062;2022-12-18T16:21:48;13.23;;;6.38;;
52898;SDS011;38763;53.096;6.062;2022-12-18T16:24:16;17.92;;;8.50;;
52898;SDS011;38763;53.096;6.062;2022-12-18T16:26:43;15.70;;;6.53;;
52898;SDS011;38763;53.096;6.062;2022-12-18T16:29:09;14.50;;;6.97;;
52898;SDS011;38763;53.096;6.062;2022-12-18T16:31:36;16.95;;;7.70;;
52898;SDS011;38763;53.096;6.062;2022-12-18T16:36:57;14.27;;;7.25;;
52898;SDS011;38763;53.096;6.062;2022-12-18T16:39:27;12.95;;;6.30;;
52898;SDS011;38763;53.096;6.062;2022-12-18T16:41:55;12.40;;;6.07;;
52898;SDS011;38763;53.096;6.062;2022-12-18T16:44:21;13.57;;;6.55;;
52898;SDS011;38763;53.096;6.062;2022-12-18T16:46:46;15.07;;;6.70;;
52898;SDS011;38763;53.096;6.062;2022-12-18T16:49:13;13.88;;;6.70;;
52898;SDS011;38763;53.096;6.062;2022-12-18T16:51:42;13.73;;;7.05;;
52898;SDS011;38763;53.096;6.062;2022-12-18T16:54:10;13.75;;;7.40;;
52898;SDS011;38763;53.096;6.062;2022-12-18T16:56:35;12.43;;;6.45;;
52898;SDS011;38763;53.096;6.062;2022-12-18T16:59:01;12.32;;;5.82;;
52898;SDS011;38763;53.096;6.062;2022-12-18T17:01:28;15.43;;;7.90;;